5K Masculino – Corrida Virtual CORTUBA

[/vc_column_text][/vc_column][/vc_row]

Resultado 5K Masculino

Colocação GeralNomeColocação Faixa EtáriaNúmeroSexoIdadeTempo BrutoTempo LiquidoEquipeCidadeRitmo Tempo LiquidoVelocidade Tempo LiquidoDescrição ModalidadeDescrição Faixa EtáriaCertificado
1RAILAND FIGUEREDO RUFINO-362M3000:17:0200:17:02FAMILY RUNNERSCRICIÚMA00:03:2417,6105KMasculino de 30 até 34 anosImprimir
2RODRIGO HECKLER-373M3200:18:4600:18:46HECKLERBlumenau00:03:4515,9905KMasculino de 30 até 34 anosImprimir
3PAULO HENRIQUE SILVA-347M6700:18:4800:18:48CONFRARIA DAS CORRIDASFlorianópolis00:03:4615,9605KMasculino de 65 até 69 anosImprimir
4GELSON MARTIN DA SILVA-170M3100:20:1100:20:11RUNNING FRIENDSTUBARÃO00:04:0214,8605KMasculino de 30 até 34 anosImprimir
5FELIPE RODRIGUES-157M3400:20:1300:20:13RDIASCAPIVARI DE BAIXO00:04:0314,8405KMasculino de 30 até 34 anosImprimir
6FERNANDO BONOT1159M4000:20:1500:20:15Lauro Muller00:04:0314,8105KMasculino de 40 até 44 anosImprimir
7RICARDO PRUDÊNCIO FERNANDES1366M3500:20:3500:20:35FAMILY RUNNERSCRICIÚMA00:04:0714,5705KMasculino de 35 até 39 anosImprimir
8ADRIANO DA SILVA BECKER25M3700:20:4900:20:49BN RUNNERSSÃO LUDGERO00:04:1014,4105KMasculino de 35 até 39 anosImprimir
9EDUARDO TARTARI1125M2900:21:4100:21:41RUNNING FRIENDSTUBARÃO00:04:2013,8405KMasculino de 25 até 29 anosImprimir
10JULIANO ZANELATO3248M3900:21:4500:21:45RUNNING FRIENDSTUBARÃO00:04:2113,7905KMasculino de 35 até 39 anosImprimir
11GABRIEL ZOCULOTTO DA SILVA1167M2200:21:5000:21:50TESBA RUNNERSTUBARÃO00:04:2213,7405KMasculino de 20 até 24 anosImprimir
12LUCAS PEREIRA MARIA2279M2700:21:5300:21:53RUNNING FRIENDSTUBARÃO00:04:2313,7105KMasculino de 25 até 29 anosImprimir
13JOSÉ CARLOS DOMICIANO COELHO2228M2200:21:5800:21:58Treze de Maio00:04:2413,6605KMasculino de 20 até 24 anosImprimir
14DEYBE CAROLINE RODRIGUES1107M3400:22:0000:22:00TESBA RUNNERSFEIRA DE SANTANA00:04:2413,6405KMasculino de 30 até 34 anosImprimir
15LUIZ ANSELMO DA MOTA4285M3900:22:0000:22:00TESBA RUNNERSFEIRA DE SANTANA00:04:2413,6405KMasculino de 35 até 39 anosImprimir
16LUCAS PEREIRA ELISEU3278M2600:22:1700:22:17TESBA RUNNERSTUBARÃO00:04:2713,4605KMasculino de 25 até 29 anosImprimir
17SANDRO PEREIRA ANTUNES1391M1900:22:5900:22:59TESBA RUNNERSCAPIVARI DE BAIXO00:04:3613,0505KMasculino de 18 até 19 anosImprimir
18ELTON DO NASCIMENTO2442M3000:23:0700:23:07TREZE RUNNERSTREZE DE MAIO00:04:3712,9805KMasculino de 30 até 34 anosImprimir
19LUCAS GHIZZO3277M2300:23:2300:23:23Treze de Maio00:04:4112,8305KMasculino de 20 até 24 anosImprimir
20PEDRO DE SOUZA ELISEU1352M5400:23:5300:23:53TESBA RUNNERSTUBARÃO00:04:4712,5605KMasculino de 50 até 54 anosImprimir
21HIBRAYM RODRIGUES DA SILVA BERNARDO4197M2000:24:0800:24:08SOB PRESSÃOJoinville00:04:5012,4305KMasculino de 20 até 24 anosImprimir
22SIDINEI FERNANDES1396M5900:24:2500:24:25RUNNING FRIENDSTUBARÃO00:04:5312,2905KMasculino de 55 até 59 anosImprimir
23ISAEL FELISBINO DE MEDEIROS3206M3400:24:3500:24:35RUNNING FRIENDSTUBARÃO00:04:5512,2005KMasculino de 30 até 34 anosImprimir
24ESTÊNER SORATTO DA SILVA JÚNIOR2141M4300:24:3600:24:36RUNNING FRIENDSTUBARÃO00:04:5512,2005KMasculino de 40 até 44 anosImprimir
25GREIK MENDES DA SILVEIRA4186M2500:24:3800:24:38RUNNING FRIENDSTUBARÃO00:04:5612,1805KMasculino de 25 até 29 anosImprimir
26MAX DAMIÃO KUHNEN3325M4300:24:3900:24:39BN RUNNERSBRAÇO DO NORTE00:04:5612,1705KMasculino de 40 até 44 anosImprimir
27RAFAEL DE BITENCOURT5358M3900:24:5300:24:53RUNNING FRIENDSTUBARÃO00:04:5912,0605KMasculino de 35 até 39 anosImprimir
28EDERSON BESA NASARIO1121M4600:24:5800:24:58CORREDORES BNBRAÇO DO NORTE00:04:5912,0205KMasculino de 45 até 49 anosImprimir
29DOUGLAS DE OLIVEIRA5117M2900:25:0000:25:00TUBARÃO00:05:0012,0005KMasculino de 25 até 29 anosImprimir
30ALISSON ALEXANDRE LUCCA218M4600:25:5200:25:52TESBA RUNNERSTUBARÃO00:05:1011,6005KMasculino de 45 até 49 anosImprimir
31JOSÉ HENRIQUE RODRIGUES MAREGA4232M4100:26:0300:26:03RUNNING FRIENDSTUBARÃO00:05:1311,5205KMasculino de 40 até 44 anosImprimir
32ANDRE POSSAMAI DELLA529M4200:26:0600:26:06DIEGO JEREMIAS TREINAMENTOS PERSONALIZADOSMorro da Fumaça00:05:1311,4905KMasculino de 40 até 44 anosImprimir
33MAICON CERILO6292M3900:26:0800:26:08Tubarão00:05:1411,4805KMasculino de 35 até 39 anosImprimir
34PATRICK FAUSTINO4346M3200:26:1500:26:15SONHO NUNCA ACABATubarão00:05:1511,4305KMasculino de 30 até 34 anosImprimir
35LUCAS CITADIN5276M2400:26:2600:26:26RUNNING FRIENDSTUBARÃO00:05:1711,3505KMasculino de 20 até 24 anosImprimir
36YAN DIONISSA DE FREITAS2438M1900:26:3600:26:36TESBA RUNNERSCAPIVARI DE BAIXO00:05:1911,2805KMasculino de 18 até 19 anosImprimir
37MAURI DE SOUZA1322M7000:26:3700:26:37Blumenau00:05:1911,2705KMasculino de 70 até 74 anosImprimir
38ALDOIR TRENTO210M5400:26:4200:26:42X RUNNERSNOVA VENEZA00:05:2011,2405KMasculino de 50 até 54 anosImprimir
39FABIO DE SOUZA ROSA7150M3700:26:4400:26:44TESBA RUNNERSCAPIVARI DE BAIXO00:05:2111,2205KMasculino de 35 até 39 anosImprimir
40FABRICIO DE GODOI3152M4700:26:4600:26:46FAMILY RUNNERSCRICIÚMA00:05:2111,2105KMasculino de 45 até 49 anosImprimir
41PAULO SANTOS6350M2800:27:1600:27:16São José00:05:2711,0005KMasculino de 25 até 29 anosImprimir
42FERNANDO PEDRINI8160M3900:27:2300:27:23TESBA RUNNERSTUBARÃO00:05:2910,9605KMasculino de 35 até 39 anosImprimir
43CLEBERSON VIEIRA ZABEL989M3600:27:4200:27:42ZABEL RUNJaraguá do Sul00:05:3210,8305KMasculino de 35 até 39 anosImprimir
44NILTON NUNES2342M5800:27:4700:27:47TUBARÃO RUNNERSTubarão00:05:3310,8005KMasculino de 55 até 59 anosImprimir
45ROBERTO CARLOS CARDOSO ESPINDOLA6369M2300:28:0500:28:05RUNNING FRIENDSTUBARÃO00:05:3710,6805KMasculino de 20 até 24 anosImprimir
46JULIANO MILANESI COLOMBO10247M3800:28:1200:28:12RUNNING FRIENDSTUBARÃO00:05:3810,6405KMasculino de 35 até 39 anosImprimir
47WAGNER LUÍS JEREMIAS7434M2900:28:3000:28:30MOVE ITTUBARÃO00:05:4210,5305KMasculino de 25 até 29 anosImprimir
48AUGUSTO INACIO BRITES1151M3500:28:5500:28:55RUNNING FRIENDSTUBARÃO00:05:4710,3705KMasculino de 35 até 39 anosImprimir
49JOSÉ HENRIQUE LINO ANTUNES7231M2300:29:1600:29:16RUNNING FRIENDSTUBARÃO00:05:5110,2505KMasculino de 20 até 24 anosImprimir
50RAFAEL BARRETO HONORIO5357M3300:29:3400:29:34TESBA RUNNERSCAPIVARI DE BAIXO00:05:5510,1505KMasculino de 30 até 34 anosImprimir
51CARLOS DIEGO BERTONCELLO PASCHOALINI872M2500:29:5700:29:57KENNER ASSESSORIAJaú00:05:5910,0205KMasculino de 25 até 29 anosImprimir
52IVAN CARLOS ZABEL12207M3900:29:5800:29:58ZABEL RUNJaraguá do Sul00:05:5910,0105KMasculino de 35 até 39 anosImprimir
53TIAGO RODRIGUES DE SOUZA8419M2200:30:0800:30:08STUDIO TOP FITNESSCRICIÚMA00:06:029,9605KMasculino de 20 até 24 anosImprimir
54DEYVID HEIDEMANN BAGGIO6108M3100:30:2400:30:24CORREDORES BNBRAÇO DO NORTE00:06:059,8705KMasculino de 30 até 34 anosImprimir
55JHONY ELVIS FERNANDES ANTUNES7219M3000:30:5300:30:53RUNNING FRIENDSTUBARÃO00:06:119,7105KMasculino de 30 até 34 anosImprimir
56VANIO BERKENBROCK4426M4900:31:3900:31:39RUNNING FRIENDSTUBARÃO00:06:209,4805KMasculino de 45 até 49 anosImprimir
57GABRIEL DOS SANTOS9165M2400:32:0200:32:02TESBA RUNNERSTUBARÃO00:06:249,3705KMasculino de 20 até 24 anosImprimir
58ALEX OLIVEIRA DA SILVA514M4600:32:3400:32:34TESBA RUNNERSTUBARÃO00:06:319,2105KMasculino de 45 até 49 anosImprimir
59MATHEUS DELLA GIUSTINA10320M2400:33:1200:33:12BN RUNNERSBRAÇO DO NORTE00:06:389,0405KMasculino de 20 até 24 anosImprimir
60CARLOS LUIZ RODRIGUES MOURA374M5500:39:4000:39:40TESBA RUNNERSFEIRA DE SANTANA00:07:567,5605KMasculino de 55 até 59 anosImprimir
61THIAGO COSTA6414M4200:40:0600:40:06CRICIÚMA00:08:017,4805KMasculino de 40 até 44 anosImprimir
62JUAN VIEIRA DA LUZ11240M2100:46:5500:46:55PALHOÇA00:09:236,3905KMasculino de 20 até 24 anosImprimir
pt_BRPortuguese
pt_BRPortuguese